sensor_id;sensor_type;location;lat;lon;timestamp;P1;durP1;ratioP1;P2;durP2;ratioP2
1505;SDS011;744;51.436;7.356;2023-07-16T00:02:01;2.27;;;1.50;;
1505;SDS011;744;51.436;7.356;2023-07-16T00:04:28;3.30;;;1.70;;
1505;SDS011;744;51.436;7.356;2023-07-16T00:06:56;3.13;;;1.93;;
1505;SDS011;744;51.436;7.356;2023-07-16T00:09:23;1.30;;;1.20;;
1505;SDS011;744;51.436;7.356;2023-07-16T00:11:50;5.23;;;1.77;;
1505;SDS011;744;51.436;7.356;2023-07-16T00:14:17;1.70;;;1.37;;
1505;SDS011;744;51.436;7.356;2023-07-16T00:16:44;3.30;;;1.30;;
1505;SDS011;744;51.436;7.356;2023-07-16T00:19:11;4.43;;;1.90;;
1505;SDS011;744;51.436;7.356;2023-07-16T00:21:38;3.50;;;1.83;;
1505;SDS011;744;51.436;7.356;2023-07-16T00:24:05;3.80;;;1.90;;
1505;SDS011;744;51.436;7.356;2023-07-16T00:26:32;2.90;;;1.67;;
1505;SDS011;744;51.436;7.356;2023-07-16T00:28:59;3.13;;;1.80;;
1505;SDS011;744;51.436;7.356;2023-07-16T00:31:26;1.60;;;1.50;;
1505;SDS011;744;51.436;7.356;2023-07-16T00:33:53;1.97;;;1.67;;
1505;SDS011;744;51.436;7.356;2023-07-16T00:36:19;2.90;;;1.73;;
1505;SDS011;744;51.436;7.356;2023-07-16T00:38:46;1.50;;;1.37;;
1505;SDS011;744;51.436;7.356;2023-07-16T00:41:13;3.20;;;2.10;;
1505;SDS011;744;51.436;7.356;2023-07-16T00:43:40;2.10;;;1.47;;
1505;SDS011;744;51.436;7.356;2023-07-16T00:46:08;5.00;;;1.53;;
1505;SDS011;744;51.436;7.356;2023-07-16T00:48:35;2.90;;;2.13;;
1505;SDS011;744;51.436;7.356;2023-07-16T00:51:02;2.83;;;1.73;;
1505;SDS011;744;51.436;7.356;2023-07-16T00:53:30;2.00;;;1.40;;
1505;SDS011;744;51.436;7.356;2023-07-16T00:55:57;5.10;;;1.90;;
1505;SDS011;744;51.436;7.356;2023-07-16T00:58:24;2.13;;;1.93;;
1505;SDS011;744;51.436;7.356;2023-07-16T01:00:51;2.60;;;1.30;;
1505;SDS011;744;51.436;7.356;2023-07-16T01:03:18;3.50;;;1.60;;
1505;SDS011;744;51.436;7.356;2023-07-16T01:05:47;3.50;;;1.90;;
1505;SDS011;744;51.436;7.356;2023-07-16T01:08:41;4.50;;;1.27;;
1505;SDS011;744;51.436;7.356;2023-07-16T01:11:12;2.03;;;1.60;;
1505;SDS011;744;51.436;7.356;2023-07-16T01:13:41;2.50;;;1.83;;
1505;SDS011;744;51.436;7.356;2023-07-16T01:16:19;2.73;;;1.50;;
1505;SDS011;744;51.436;7.356;2023-07-16T01:18:48;4.07;;;2.73;;
1505;SDS011;744;51.436;7.356;2023-07-16T01:21:15;2.67;;;1.77;;
1505;SDS011;744;51.436;7.356;2023-07-16T01:23:55;3.13;;;1.73;;
1505;SDS011;744;51.436;7.356;2023-07-16T01:29:29;3.73;;;1.90;;
1505;SDS011;744;51.436;7.356;2023-07-16T01:32:02;2.50;;;1.40;;
1505;SDS011;744;51.436;7.356;2023-07-16T01:34:30;3.23;;;2.07;;
1505;SDS011;744;51.436;7.356;2023-07-16T01:37:00;3.53;;;1.50;;
1505;SDS011;744;51.436;7.356;2023-07-16T01:39:28;2.30;;;1.33;;
1505;SDS011;744;51.436;7.356;2023-07-16T01:41:56;3.80;;;1.80;;
1505;SDS011;744;51.436;7.356;2023-07-16T01:44:23;2.57;;;1.87;;
1505;SDS011;744;51.436;7.356;2023-07-16T01:49:39;4.17;;;1.77;;
1505;SDS011;744;51.436;7.356;2023-07-16T01:52:06;5.20;;;2.50;;
1505;SDS011;744;51.436;7.356;2023-07-16T01:54:33;4.37;;;1.70;;
1505;SDS011;744;51.436;7.356;2023-07-16T01:57:01;2.80;;;1.50;;
1505;SDS011;744;51.436;7.356;2023-07-16T01:59:28;3.93;;;1.40;;
1505;SDS011;744;51.436;7.356;2023-07-16T02:01:54;2.13;;;1.73;;
1505;SDS011;744;51.436;7.356;2023-07-16T02:04:21;3.77;;;1.43;;
1505;SDS011;744;51.436;7.356;2023-07-16T02:06:48;1.97;;;1.53;;
1505;SDS011;744;51.436;7.356;2023-07-16T02:09:15;3.33;;;1.77;;
1505;SDS011;744;51.436;7.356;2023-07-16T02:11:42;3.63;;;1.60;;
1505;SDS011;744;51.436;7.356;2023-07-16T02:14:09;4.83;;;1.30;;
1505;SDS011;744;51.436;7.356;2023-07-16T02:16:36;4.77;;;1.67;;
1505;SDS011;744;51.436;7.356;2023-07-16T02:19:03;4.27;;;2.07;;
1505;SDS011;744;51.436;7.356;2023-07-16T02:21:29;6.50;;;3.63;;
1505;SDS011;744;51.436;7.356;2023-07-16T02:23:56;4.13;;;1.27;;
1505;SDS011;744;51.436;7.356;2023-07-16T02:26:23;5.27;;;1.60;;
1505;SDS011;744;51.436;7.356;2023-07-16T02:28:50;6.50;;;1.90;;
1505;SDS011;744;51.436;7.356;2023-07-16T02:31:17;4.47;;;1.87;;
1505;SDS011;744;51.436;7.356;2023-07-16T02:33:44;4.30;;;2.23;;
1505;SDS011;744;51.436;7.356;2023-07-16T02:36:11;3.97;;;2.20;;
1505;SDS011;744;51.436;7.356;2023-07-16T02:38:37;4.20;;;1.97;;
1505;SDS011;744;51.436;7.356;2023-07-16T02:41:04;1.80;;;1.70;;
1505;SDS011;744;51.436;7.356;2023-07-16T02:43:31;4.47;;;1.70;;
1505;SDS011;744;51.436;7.356;2023-07-16T02:45:58;3.10;;;2.17;;
1505;SDS011;744;51.436;7.356;2023-07-16T02:48:25;2.80;;;1.90;;
1505;SDS011;744;51.436;7.356;2023-07-16T02:50:52;3.77;;;2.20;;
1505;SDS011;744;51.436;7.356;2023-07-16T02:53:18;2.80;;;1.73;;
1505;SDS011;744;51.436;7.356;2023-07-16T02:55:45;3.80;;;1.90;;
1505;SDS011;744;51.436;7.356;2023-07-16T02:58:13;4.33;;;1.90;;
1505;SDS011;744;51.436;7.356;2023-07-16T03:00:39;3.17;;;1.67;;
1505;SDS011;744;51.436;7.356;2023-07-16T03:03:06;3.63;;;1.60;;
1505;SDS011;744;51.436;7.356;2023-07-16T03:05:33;11.47;;;1.93;;
1505;SDS011;744;51.436;7.356;2023-07-16T03:08:00;4.10;;;1.67;;
1505;SDS011;744;51.436;7.356;2023-07-16T03:10:27;2.97;;;1.67;;
1505;SDS011;744;51.436;7.356;2023-07-16T03:12:54;6.37;;;2.43;;
1505;SDS011;744;51.436;7.356;2023-07-16T03:15:21;2.43;;;1.47;;
1505;SDS011;744;51.436;7.356;2023-07-16T03:17:48;3.63;;;1.73;;
1505;SDS011;744;51.436;7.356;2023-07-16T03:20:15;5.73;;;2.70;;
1505;SDS011;744;51.436;7.356;2023-07-16T03:22:42;5.43;;;2.53;;
1505;SDS011;744;51.436;7.356;2023-07-16T03:25:09;3.73;;;1.87;;
1505;SDS011;744;51.436;7.356;2023-07-16T03:27:36;4.93;;;1.97;;
1505;SDS011;744;51.436;7.356;2023-07-16T03:30:03;4.80;;;2.30;;
1505;SDS011;744;51.436;7.356;2023-07-16T03:32:30;3.63;;;1.63;;
1505;SDS011;744;51.436;7.356;2023-07-16T03:35:16;3.07;;;1.80;;
1505;SDS011;744;51.436;7.356;2023-07-16T03:37:43;4.10;;;1.67;;
1505;SDS011;744;51.436;7.356;2023-07-16T03:40:14;6.40;;;1.83;;
1505;SDS011;744;51.436;7.356;2023-07-16T03:42:42;5.27;;;1.97;;
1505;SDS011;744;51.436;7.356;2023-07-16T03:45:10;7.07;;;1.30;;
1505;SDS011;744;51.436;7.356;2023-07-16T03:47:37;7.13;;;1.87;;
1505;SDS011;744;51.436;7.356;2023-07-16T03:50:04;6.17;;;1.50;;
1505;SDS011;744;51.436;7.356;2023-07-16T03:52:32;3.07;;;2.03;;
1505;SDS011;744;51.436;7.356;2023-07-16T03:54:58;4.80;;;1.80;;
1505;SDS011;744;51.436;7.356;2023-07-16T03:57:27;3.20;;;2.00;;
1505;SDS011;744;51.436;7.356;2023-07-16T03:59:55;2.33;;;1.13;;
1505;SDS011;744;51.436;7.356;2023-07-16T04:02:23;9.47;;;1.83;;
1505;SDS011;744;51.436;7.356;2023-07-16T04:04:51;1.80;;;1.50;;
1505;SDS011;744;51.436;7.356;2023-07-16T04:07:17;5.97;;;2.77;;
1505;SDS011;744;51.436;7.356;2023-07-16T04:09:44;4.40;;;2.30;;
1505;SDS011;744;51.436;7.356;2023-07-16T04:12:11;2.40;;;2.13;;
1505;SDS011;744;51.436;7.356;2023-07-16T04:14:38;4.33;;;1.93;;
1505;SDS011;744;51.436;7.356;2023-07-16T04:17:05;5.33;;;1.80;;
1505;SDS011;744;51.436;7.356;2023-07-16T04:19:32;4.13;;;2.03;;
1505;SDS011;744;51.436;7.356;2023-07-16T04:21:59;4.53;;;2.13;;
1505;SDS011;744;51.436;7.356;2023-07-16T04:24:26;4.57;;;1.90;;
1505;SDS011;744;51.436;7.356;2023-07-16T04:26:53;2.90;;;1.80;;
1505;SDS011;744;51.436;7.356;2023-07-16T04:29:20;6.23;;;2.80;;
1505;SDS011;744;51.436;7.356;2023-07-16T04:31:47;5.50;;;2.13;;
1505;SDS011;744;51.436;7.356;2023-07-16T04:34:14;2.90;;;1.90;;
1505;SDS011;744;51.436;7.356;2023-07-16T04:36:44;6.73;;;1.87;;
1505;SDS011;744;51.436;7.356;2023-07-16T04:39:11;4.13;;;1.50;;
1505;SDS011;744;51.436;7.356;2023-07-16T04:41:38;5.43;;;2.23;;
1505;SDS011;744;51.436;7.356;2023-07-16T04:44:05;6.30;;;2.43;;
1505;SDS011;744;51.436;7.356;2023-07-16T04:46:32;2.87;;;1.67;;
1505;SDS011;744;51.436;7.356;2023-07-16T04:49:00;5.10;;;2.23;;
1505;SDS011;744;51.436;7.356;2023-07-16T04:51:28;3.80;;;2.60;;
1505;SDS011;744;51.436;7.356;2023-07-16T04:53:55;5.13;;;2.10;;
1505;SDS011;744;51.436;7.356;2023-07-16T04:56:21;5.60;;;3.03;;
1505;SDS011;744;51.436;7.356;2023-07-16T04:58:48;3.00;;;2.30;;
1505;SDS011;744;51.436;7.356;2023-07-16T05:01:15;3.60;;;1.90;;
1505;SDS011;744;51.436;7.356;2023-07-16T05:03:42;4.33;;;2.23;;
1505;SDS011;744;51.436;7.356;2023-07-16T05:06:09;4.33;;;2.43;;
1505;SDS011;744;51.436;7.356;2023-07-16T05:08:36;5.70;;;1.90;;
1505;SDS011;744;51.436;7.356;2023-07-16T05:11:03;3.53;;;2.20;;
1505;SDS011;744;51.436;7.356;2023-07-16T05:13:29;4.33;;;2.07;;
1505;SDS011;744;51.436;7.356;2023-07-16T05:15:56;7.27;;;2.53;;
1505;SDS011;744;51.436;7.356;2023-07-16T05:18:23;5.03;;;2.67;;
1505;SDS011;744;51.436;7.356;2023-07-16T05:20:50;4.63;;;2.40;;
1505;SDS011;744;51.436;7.356;2023-07-16T05:23:17;4.43;;;2.40;;
1505;SDS011;744;51.436;7.356;2023-07-16T05:25:47;4.40;;;2.00;;
1505;SDS011;744;51.436;7.356;2023-07-16T05:28:15;5.00;;;2.40;;
1505;SDS011;744;51.436;7.356;2023-07-16T05:30:42;7.00;;;3.40;;
1505;SDS011;744;51.436;7.356;2023-07-16T05:33:10;5.97;;;2.63;;
1505;SDS011;744;51.436;7.356;2023-07-16T05:35:37;11.00;;;3.47;;
1505;SDS011;744;51.436;7.356;2023-07-16T05:38:05;9.50;;;2.83;;
1505;SDS011;744;51.436;7.356;2023-07-16T05:40:32;2.87;;;1.90;;
1505;SDS011;744;51.436;7.356;2023-07-16T05:42:59;5.60;;;2.77;;
1505;SDS011;744;51.436;7.356;2023-07-16T05:45:26;6.37;;;2.57;;
1505;SDS011;744;51.436;7.356;2023-07-16T05:47:53;8.23;;;3.60;;
1505;SDS011;744;51.436;7.356;2023-07-16T05:50:20;7.10;;;2.60;;
1505;SDS011;744;51.436;7.356;2023-07-16T05:52:46;8.90;;;2.70;;
1505;SDS011;744;51.436;7.356;2023-07-16T05:55:15;4.17;;;2.60;;
1505;SDS011;744;51.436;7.356;2023-07-16T05:57:42;5.67;;;2.40;;
1505;SDS011;744;51.436;7.356;2023-07-16T06:00:09;6.37;;;2.33;;
1505;SDS011;744;51.436;7.356;2023-07-16T06:02:36;7.57;;;2.50;;
1505;SDS011;744;51.436;7.356;2023-07-16T06:05:03;5.50;;;3.10;;
1505;SDS011;744;51.436;7.356;2023-07-16T06:07:31;5.60;;;3.00;;
1505;SDS011;744;51.436;7.356;2023-07-16T06:09:58;8.10;;;2.90;;
1505;SDS011;744;51.436;7.356;2023-07-16T06:12:25;4.50;;;3.53;;
1505;SDS011;744;51.436;7.356;2023-07-16T06:14:53;9.90;;;3.87;;
1505;SDS011;744;51.436;7.356;2023-07-16T06:17:20;6.97;;;3.77;;
1505;SDS011;744;51.436;7.356;2023-07-16T06:19:46;9.57;;;3.50;;
1505;SDS011;744;51.436;7.356;2023-07-16T06:22:16;9.73;;;4.13;;
1505;SDS011;744;51.436;7.356;2023-07-16T06:24:43;4.43;;;3.00;;
1505;SDS011;744;51.436;7.356;2023-07-16T06:27:10;4.30;;;3.27;;
1505;SDS011;744;51.436;7.356;2023-07-16T06:29:37;5.47;;;3.10;;
1505;SDS011;744;51.436;7.356;2023-07-16T06:32:04;5.77;;;2.70;;
1505;SDS011;744;51.436;7.356;2023-07-16T06:34:31;8.50;;;3.10;;
1505;SDS011;744;51.436;7.356;2023-07-16T06:36:58;6.70;;;3.87;;
1505;SDS011;744;51.436;7.356;2023-07-16T06:39:25;7.57;;;3.73;;
1505;SDS011;744;51.436;7.356;2023-07-16T06:41:52;6.10;;;3.47;;
1505;SDS011;744;51.436;7.356;2023-07-16T06:44:19;5.10;;;3.30;;
1505;SDS011;744;51.436;7.356;2023-07-16T06:46:47;6.27;;;3.67;;
1505;SDS011;744;51.436;7.356;2023-07-16T06:49:14;8.60;;;3.30;;
1505;SDS011;744;51.436;7.356;2023-07-16T06:51:41;7.37;;;3.93;;
1505;SDS011;744;51.436;7.356;2023-07-16T06:54:08;8.40;;;4.13;;
1505;SDS011;744;51.436;7.356;2023-07-16T06:56:35;4.27;;;3.50;;
1505;SDS011;744;51.436;7.356;2023-07-16T06:59:02;9.97;;;4.10;;
1505;SDS011;744;51.436;7.356;2023-07-16T07:01:29;6.03;;;4.10;;
1505;SDS011;744;51.436;7.356;2023-07-16T07:03:56;5.67;;;4.00;;
1505;SDS011;744;51.436;7.356;2023-07-16T07:06:23;9.17;;;4.57;;
1505;SDS011;744;51.436;7.356;2023-07-16T07:08:51;6.40;;;3.70;;
1505;SDS011;744;51.436;7.356;2023-07-16T07:11:18;10.27;;;4.37;;
1505;SDS011;744;51.436;7.356;2023-07-16T07:13:45;10.70;;;4.00;;
1505;SDS011;744;51.436;7.356;2023-07-16T07:16:12;5.87;;;4.10;;
1505;SDS011;744;51.436;7.356;2023-07-16T07:18:39;11.37;;;4.30;;
1505;SDS011;744;51.436;7.356;2023-07-16T07:21:06;8.63;;;4.30;;
1505;SDS011;744;51.436;7.356;2023-07-16T07:23:33;6.23;;;4.10;;
1505;SDS011;744;51.436;7.356;2023-07-16T07:26:00;6.43;;;3.90;;
1505;SDS011;744;51.436;7.356;2023-07-16T07:28:27;5.10;;;3.43;;
1505;SDS011;744;51.436;7.356;2023-07-16T07:30:54;7.13;;;4.53;;
1505;SDS011;744;51.436;7.356;2023-07-16T07:33:21;5.33;;;3.53;;
1505;SDS011;744;51.436;7.356;2023-07-16T07:35:48;7.20;;;4.50;;
1505;SDS011;744;51.436;7.356;2023-07-16T07:38:15;5.40;;;3.90;;
1505;SDS011;744;51.436;7.356;2023-07-16T07:40:42;6.03;;;4.10;;
1505;SDS011;744;51.436;7.356;2023-07-16T07:43:10;7.40;;;3.57;;
1505;SDS011;744;51.436;7.356;2023-07-16T07:45:36;6.27;;;4.00;;
1505;SDS011;744;51.436;7.356;2023-07-16T07:48:03;5.87;;;4.30;;
1505;SDS011;744;51.436;7.356;2023-07-16T07:50:31;6.63;;;4.03;;
1505;SDS011;744;51.436;7.356;2023-07-16T07:52:58;5.50;;;4.40;;
1505;SDS011;744;51.436;7.356;2023-07-16T07:55:25;4.77;;;4.27;;
1505;SDS011;744;51.436;7.356;2023-07-16T07:57:52;7.87;;;3.97;;
1505;SDS011;744;51.436;7.356;2023-07-16T08:00:19;7.70;;;4.20;;
1505;SDS011;744;51.436;7.356;2023-07-16T08:02:46;5.13;;;4.03;;
1505;SDS011;744;51.436;7.356;2023-07-16T08:05:13;7.00;;;4.07;;
1505;SDS011;744;51.436;7.356;2023-07-16T08:07:41;6.30;;;3.90;;
1505;SDS011;744;51.436;7.356;2023-07-16T08:10:08;8.23;;;4.20;;
1505;SDS011;744;51.436;7.356;2023-07-16T08:12:35;7.70;;;4.30;;
1505;SDS011;744;51.436;7.356;2023-07-16T08:15:02;5.20;;;3.97;;
1505;SDS011;744;51.436;7.356;2023-07-16T08:17:29;9.63;;;4.70;;
1505;SDS011;744;51.436;7.356;2023-07-16T08:19:57;6.30;;;4.20;;
1505;SDS011;744;51.436;7.356;2023-07-16T08:22:24;8.57;;;4.43;;
1505;SDS011;744;51.436;7.356;2023-07-16T08:24:51;6.97;;;3.93;;
1505;SDS011;744;51.436;7.356;2023-07-16T08:27:18;4.93;;;4.20;;
1505;SDS011;744;51.436;7.356;2023-07-16T08:29:46;7.40;;;3.50;;
1505;SDS011;744;51.436;7.356;2023-07-16T08:32:12;6.47;;;4.40;;
1505;SDS011;744;51.436;7.356;2023-07-16T08:34:39;6.33;;;4.30;;
1505;SDS011;744;51.436;7.356;2023-07-16T08:37:06;8.87;;;4.90;;
1505;SDS011;744;51.436;7.356;2023-07-16T08:39:33;5.77;;;3.83;;
1505;SDS011;744;51.436;7.356;2023-07-16T08:42:00;4.30;;;3.53;;
1505;SDS011;744;51.436;7.356;2023-07-16T08:44:28;8.40;;;4.47;;
1505;SDS011;744;51.436;7.356;2023-07-16T08:46:56;6.33;;;4.10;;
1505;SDS011;744;51.436;7.356;2023-07-16T08:49:23;7.33;;;3.83;;
1505;SDS011;744;51.436;7.356;2023-07-16T08:51:56;6.43;;;3.87;;
1505;SDS011;744;51.436;7.356;2023-07-16T08:54:23;7.27;;;4.03;;
1505;SDS011;744;51.436;7.356;2023-07-16T08:56:51;5.23;;;3.90;;
1505;SDS011;744;51.436;7.356;2023-07-16T08:59:19;10.20;;;6.73;;
1505;SDS011;744;51.436;7.356;2023-07-16T09:01:47;8.73;;;4.87;;
1505;SDS011;744;51.436;7.356;2023-07-16T09:04:15;5.73;;;4.23;;
1505;SDS011;744;51.436;7.356;2023-07-16T09:06:43;4.07;;;3.33;;
1505;SDS011;744;51.436;7.356;2023-07-16T09:09:19;6.30;;;5.20;;
1505;SDS011;744;51.436;7.356;2023-07-16T09:11:48;5.93;;;4.50;;
1505;SDS011;744;51.436;7.356;2023-07-16T09:14:18;6.43;;;3.80;;
1505;SDS011;744;51.436;7.356;2023-07-16T09:16:49;5.03;;;3.83;;
1505;SDS011;744;51.436;7.356;2023-07-16T09:19:20;8.90;;;4.27;;
1505;SDS011;744;51.436;7.356;2023-07-16T09:21:48;5.83;;;3.67;;
1505;SDS011;744;51.436;7.356;2023-07-16T09:24:16;5.90;;;3.73;;
1505;SDS011;744;51.436;7.356;2023-07-16T09:26:47;5.50;;;3.30;;
1505;SDS011;744;51.436;7.356;2023-07-16T09:29:18;5.17;;;3.43;;
1505;SDS011;744;51.436;7.356;2023-07-16T09:31:59;6.57;;;3.30;;
1505;SDS011;744;51.436;7.356;2023-07-16T09:34:29;6.40;;;3.03;;
1505;SDS011;744;51.436;7.356;2023-07-16T09:37:00;4.90;;;3.20;;
1505;SDS011;744;51.436;7.356;2023-07-16T09:39:27;5.70;;;3.40;;
1505;SDS011;744;51.436;7.356;2023-07-16T09:41:54;4.13;;;2.80;;
1505;SDS011;744;51.436;7.356;2023-07-16T09:44:24;4.00;;;3.30;;
1505;SDS011;744;51.436;7.356;2023-07-16T09:46:51;4.70;;;3.43;;
1505;SDS011;744;51.436;7.356;2023-07-16T09:49:18;4.33;;;2.90;;
1505;SDS011;744;51.436;7.356;2023-07-16T09:51:45;4.47;;;3.37;;
1505;SDS011;744;51.436;7.356;2023-07-16T09:54:14;5.50;;;3.13;;
1505;SDS011;744;51.436;7.356;2023-07-16T09:56:43;3.77;;;2.70;;
1505;SDS011;744;51.436;7.356;2023-07-16T09:59:13;9.13;;;3.57;;
1505;SDS011;744;51.436;7.356;2023-07-16T10:01:42;7.50;;;3.10;;
1505;SDS011;744;51.436;7.356;2023-07-16T10:04:16;5.07;;;3.00;;
1505;SDS011;744;51.436;7.356;2023-07-16T10:09:39;6.00;;;2.67;;
1505;SDS011;744;51.436;7.356;2023-07-16T10:14:44;4.70;;;3.20;;
1505;SDS011;744;51.436;7.356;2023-07-16T10:17:13;5.37;;;3.10;;
1505;SDS011;744;51.436;7.356;2023-07-16T10:22:19;5.47;;;3.70;;
1505;SDS011;744;51.436;7.356;2023-07-16T10:25:21;5.60;;;2.40;;
1505;SDS011;744;51.436;7.356;2023-07-16T10:27:49;8.23;;;3.07;;
1505;SDS011;744;51.436;7.356;2023-07-16T10:30:17;6.33;;;3.17;;
1505;SDS011;744;51.436;7.356;2023-07-16T10:32:44;3.13;;;2.70;;
1505;SDS011;744;51.436;7.356;2023-07-16T10:35:11;5.80;;;3.73;;
1505;SDS011;744;51.436;7.356;2023-07-16T10:37:39;4.70;;;2.97;;
1505;SDS011;744;51.436;7.356;2023-07-16T10:40:09;6.80;;;3.40;;
1505;SDS011;744;51.436;7.356;2023-07-16T10:42:39;3.70;;;3.10;;
1505;SDS011;744;51.436;7.356;2023-07-16T10:45:09;4.73;;;3.33;;
1505;SDS011;744;51.436;7.356;2023-07-16T10:47:37;11.67;;;2.80;;
1505;SDS011;744;51.436;7.356;2023-07-16T10:50:07;4.63;;;2.73;;
1505;SDS011;744;51.436;7.356;2023-07-16T10:52:35;5.03;;;3.53;;
1505;SDS011;744;51.436;7.356;2023-07-16T10:55:04;4.13;;;2.43;;
1505;SDS011;744;51.436;7.356;2023-07-16T10:57:31;3.70;;;2.67;;
1505;SDS011;744;51.436;7.356;2023-07-16T10:59:58;6.53;;;2.70;;
1505;SDS011;744;51.436;7.356;2023-07-16T11:02:26;3.37;;;2.40;;
1505;SDS011;744;51.436;7.356;2023-07-16T11:04:54;5.60;;;2.90;;
1505;SDS011;744;51.436;7.356;2023-07-16T11:07:21;2.67;;;2.33;;
1505;SDS011;744;51.436;7.356;2023-07-16T11:12:20;12.87;;;3.20;;
1505;SDS011;744;51.436;7.356;2023-07-16T11:14:55;4.33;;;2.40;;
1505;SDS011;744;51.436;7.356;2023-07-16T11:17:23;7.70;;;3.07;;
1505;SDS011;744;51.436;7.356;2023-07-16T11:19:54;4.50;;;3.07;;
1505;SDS011;744;51.436;7.356;2023-07-16T11:22:27;3.60;;;2.67;;
1505;SDS011;744;51.436;7.356;2023-07-16T11:24:54;2.80;;;2.23;;
1505;SDS011;744;51.436;7.356;2023-07-16T11:27:22;5.20;;;2.87;;
1505;SDS011;744;51.436;7.356;2023-07-16T11:29:54;4.00;;;2.87;;
1505;SDS011;744;51.436;7.356;2023-07-16T11:34:54;3.13;;;2.80;;
1505;SDS011;744;51.436;7.356;2023-07-16T11:37:22;8.53;;;2.83;;
1505;SDS011;744;51.436;7.356;2023-07-16T11:39:51;3.93;;;2.70;;
1505;SDS011;744;51.436;7.356;2023-07-16T11:42:35;4.87;;;2.60;;
1505;SDS011;744;51.436;7.356;2023-07-16T11:45:14;3.80;;;2.77;;
1505;SDS011;744;51.436;7.356;2023-07-16T11:47:42;5.67;;;2.90;;
1505;SDS011;744;51.436;7.356;2023-07-16T11:50:10;2.90;;;2.60;;
1505;SDS011;744;51.436;7.356;2023-07-16T11:52:38;8.00;;;2.40;;
1505;SDS011;744;51.436;7.356;2023-07-16T11:55:05;3.33;;;3.03;;
1505;SDS011;744;51.436;7.356;2023-07-16T11:57:33;3.23;;;2.90;;
1505;SDS011;744;51.436;7.356;2023-07-16T12:00:00;6.87;;;2.60;;
1505;SDS011;744;51.436;7.356;2023-07-16T12:02:29;8.67;;;3.37;;
1505;SDS011;744;51.436;7.356;2023-07-16T12:04:56;4.90;;;2.60;;
1505;SDS011;744;51.436;7.356;2023-07-16T12:07:33;5.90;;;3.10;;
1505;SDS011;744;51.436;7.356;2023-07-16T12:10:02;3.60;;;2.70;;
1505;SDS011;744;51.436;7.356;2023-07-16T12:12:30;3.80;;;2.80;;
1505;SDS011;744;51.436;7.356;2023-07-16T12:14:57;4.57;;;2.70;;
1505;SDS011;744;51.436;7.356;2023-07-16T12:17:25;5.67;;;3.20;;
1505;SDS011;744;51.436;7.356;2023-07-16T12:19:52;3.90;;;2.60;;
1505;SDS011;744;51.436;7.356;2023-07-16T12:22:19;4.17;;;2.93;;
1505;SDS011;744;51.436;7.356;2023-07-16T12:24:47;6.73;;;2.80;;
1505;SDS011;744;51.436;7.356;2023-07-16T12:27:14;3.87;;;2.87;;
1505;SDS011;744;51.436;7.356;2023-07-16T12:29:44;4.10;;;2.90;;
1505;SDS011;744;51.436;7.356;2023-07-16T12:32:11;4.20;;;2.67;;
1505;SDS011;744;51.436;7.356;2023-07-16T12:34:39;5.13;;;2.57;;
1505;SDS011;744;51.436;7.356;2023-07-16T12:37:06;5.73;;;2.87;;
1505;SDS011;744;51.436;7.356;2023-07-16T12:39:36;3.20;;;2.60;;
1505;SDS011;744;51.436;7.356;2023-07-16T12:42:03;6.57;;;3.50;;
1505;SDS011;744;51.436;7.356;2023-07-16T12:44:30;3.63;;;2.80;;
1505;SDS011;744;51.436;7.356;2023-07-16T12:46:57;3.73;;;2.77;;
1505;SDS011;744;51.436;7.356;2023-07-16T12:49:24;4.37;;;2.63;;
1505;SDS011;744;51.436;7.356;2023-07-16T12:51:51;3.03;;;2.70;;
1505;SDS011;744;51.436;7.356;2023-07-16T12:54:18;3.10;;;2.80;;
1505;SDS011;744;51.436;7.356;2023-07-16T12:56:45;3.73;;;2.67;;
1505;SDS011;744;51.436;7.356;2023-07-16T12:59:11;4.53;;;2.83;;
1505;SDS011;744;51.436;7.356;2023-07-16T13:01:38;3.20;;;2.60;;
1505;SDS011;744;51.436;7.356;2023-07-16T13:04:06;3.43;;;2.53;;
1505;SDS011;744;51.436;7.356;2023-07-16T13:06:33;5.40;;;2.53;;
1505;SDS011;744;51.436;7.356;2023-07-16T13:08:59;6.77;;;3.37;;
1505;SDS011;744;51.436;7.356;2023-07-16T13:11:26;4.80;;;2.80;;
1505;SDS011;744;51.436;7.356;2023-07-16T13:13:53;2.87;;;2.60;;
1505;SDS011;744;51.436;7.356;2023-07-16T13:16:20;4.70;;;2.77;;
1505;SDS011;744;51.436;7.356;2023-07-16T13:18:47;3.33;;;2.53;;
1505;SDS011;744;51.436;7.356;2023-07-16T13:21:14;3.37;;;2.60;;
1505;SDS011;744;51.436;7.356;2023-07-16T13:23:41;7.80;;;3.60;;
1505;SDS011;744;51.436;7.356;2023-07-16T13:26:08;4.97;;;2.77;;
1505;SDS011;744;51.436;7.356;2023-07-16T13:28:34;4.03;;;3.10;;
1505;SDS011;744;51.436;7.356;2023-07-16T13:31:01;3.80;;;3.13;;
1505;SDS011;744;51.436;7.356;2023-07-16T13:33:28;6.00;;;3.30;;
1505;SDS011;744;51.436;7.356;2023-07-16T13:35:56;5.77;;;3.13;;
1505;SDS011;744;51.436;7.356;2023-07-16T13:38:23;3.87;;;2.93;;
1505;SDS011;744;51.436;7.356;2023-07-16T13:40:50;8.50;;;3.10;;
1505;SDS011;744;51.436;7.356;2023-07-16T13:43:17;3.00;;;2.60;;
1505;SDS011;744;51.436;7.356;2023-07-16T13:45:44;4.10;;;2.80;;
1505;SDS011;744;51.436;7.356;2023-07-16T13:48:11;4.13;;;2.93;;
1505;SDS011;744;51.436;7.356;2023-07-16T13:50:37;4.27;;;2.77;;
1505;SDS011;744;51.436;7.356;2023-07-16T13:53:04;3.77;;;2.57;;
1505;SDS011;744;51.436;7.356;2023-07-16T13:55:31;3.20;;;2.50;;
1505;SDS011;744;51.436;7.356;2023-07-16T13:57:58;6.80;;;3.33;;
1505;SDS011;744;51.436;7.356;2023-07-16T14:00:25;5.60;;;2.90;;
1505;SDS011;744;51.436;7.356;2023-07-16T14:02:52;2.80;;;2.57;;
1505;SDS011;744;51.436;7.356;2023-07-16T14:05:19;5.37;;;2.83;;
1505;SDS011;744;51.436;7.356;2023-07-16T14:07:47;5.27;;;2.90;;
1505;SDS011;744;51.436;7.356;2023-07-16T14:10:13;4.00;;;3.60;;
1505;SDS011;744;51.436;7.356;2023-07-16T14:12:41;2.70;;;2.17;;
1505;SDS011;744;51.436;7.356;2023-07-16T14:15:08;4.90;;;2.90;;
1505;SDS011;744;51.436;7.356;2023-07-16T14:17:35;5.47;;;2.73;;
1505;SDS011;744;51.436;7.356;2023-07-16T14:20:02;4.50;;;3.10;;
1505;SDS011;744;51.436;7.356;2023-07-16T14:22:30;3.57;;;2.83;;
1505;SDS011;744;51.436;7.356;2023-07-16T14:24:57;5.07;;;2.77;;
1505;SDS011;744;51.436;7.356;2023-07-16T14:27:23;3.83;;;3.20;;
1505;SDS011;744;51.436;7.356;2023-07-16T14:29:51;4.23;;;2.87;;
1505;SDS011;744;51.436;7.356;2023-07-16T14:32:32;6.47;;;3.63;;
1505;SDS011;744;51.436;7.356;2023-07-16T14:34:59;5.07;;;2.40;;
1505;SDS011;744;51.436;7.356;2023-07-16T14:37:27;3.90;;;2.60;;
1505;SDS011;744;51.436;7.356;2023-07-16T14:39:54;3.57;;;2.97;;
1505;SDS011;744;51.436;7.356;2023-07-16T14:42:21;6.30;;;2.60;;
1505;SDS011;744;51.436;7.356;2023-07-16T14:44:47;4.87;;;2.90;;
1505;SDS011;744;51.436;7.356;2023-07-16T14:47:14;5.30;;;2.70;;
1505;SDS011;744;51.436;7.356;2023-07-16T14:49:43;5.50;;;2.63;;
1505;SDS011;744;51.436;7.356;2023-07-16T14:52:10;4.83;;;2.80;;
1505;SDS011;744;51.436;7.356;2023-07-16T14:54:36;4.13;;;2.50;;
1505;SDS011;744;51.436;7.356;2023-07-16T14:57:03;4.00;;;2.40;;
1505;SDS011;744;51.436;7.356;2023-07-16T14:59:32;4.47;;;2.73;;
1505;SDS011;744;51.436;7.356;2023-07-16T15:02:00;4.17;;;3.03;;
1505;SDS011;744;51.436;7.356;2023-07-16T15:04:27;3.80;;;3.30;;
1505;SDS011;744;51.436;7.356;2023-07-16T15:06:54;5.80;;;3.30;;
1505;SDS011;744;51.436;7.356;2023-07-16T15:09:22;8.70;;;3.30;;
1505;SDS011;744;51.436;7.356;2023-07-16T15:11:49;3.40;;;2.43;;
1505;SDS011;744;51.436;7.356;2023-07-16T15:14:16;4.90;;;2.60;;
1505;SDS011;744;51.436;7.356;2023-07-16T15:16:43;2.77;;;2.53;;
1505;SDS011;744;51.436;7.356;2023-07-16T15:19:10;4.13;;;3.30;;
1505;SDS011;744;51.436;7.356;2023-07-16T15:21:37;5.90;;;2.80;;
1505;SDS011;744;51.436;7.356;2023-07-16T15:24:05;7.10;;;2.83;;
1505;SDS011;744;51.436;7.356;2023-07-16T15:26:32;6.07;;;3.03;;
1505;SDS011;744;51.436;7.356;2023-07-16T15:28:59;4.33;;;3.23;;
1505;SDS011;744;51.436;7.356;2023-07-16T15:31:26;2.70;;;2.47;;
1505;SDS011;744;51.436;7.356;2023-07-16T15:33:54;3.97;;;2.60;;
1505;SDS011;744;51.436;7.356;2023-07-16T15:36:22;2.50;;;2.30;;
1505;SDS011;744;51.436;7.356;2023-07-16T15:38:51;5.17;;;2.77;;
1505;SDS011;744;51.436;7.356;2023-07-16T15:41:18;6.20;;;2.23;;
1505;SDS011;744;51.436;7.356;2023-07-16T15:43:54;6.20;;;2.40;;
1505;SDS011;744;51.436;7.356;2023-07-16T15:46:21;4.87;;;2.83;;
1505;SDS011;744;51.436;7.356;2023-07-16T15:48:47;5.93;;;3.87;;
1505;SDS011;744;51.436;7.356;2023-07-16T15:51:14;3.13;;;2.30;;
1505;SDS011;744;51.436;7.356;2023-07-16T15:53:42;3.60;;;2.30;;